createdAt,value
2018-01-05T05:00:40.166Z,987.27
2018-01-05T05:01:05.663Z,987.25
2018-01-05T05:01:31.150Z,987.32
2018-01-05T05:01:56.657Z,987.25
2018-01-05T05:02:22.152Z,987.28
2018-01-05T05:02:47.654Z,987.28
2018-01-05T05:03:13.101Z,987.29
2018-01-05T05:03:38.616Z,987.25
2018-01-05T05:04:04.037Z,987.22
2018-01-05T05:04:29.530Z,987.24
2018-01-05T05:04:55.022Z,987.22
2018-01-05T05:05:20.515Z,987.25
2018-01-05T05:05:46.024Z,987.2
2018-01-05T05:06:11.503Z,987.18
2018-01-05T05:06:37.037Z,987.19
2018-01-05T05:07:02.521Z,987.22
2018-01-05T05:07:28.002Z,987.2
2018-01-05T05:07:53.534Z,987.26
2018-01-05T05:08:18.987Z,987.21
2018-01-05T05:08:44.462Z,987.17
2018-01-05T05:09:09.959Z,987.25
2018-01-05T05:09:35.481Z,987.2
2018-01-05T05:10:01.021Z,987.21
2018-01-05T05:10:26.557Z,987.2
2018-01-05T05:10:52.075Z,987.22
2018-01-05T05:11:17.533Z,987.23
2018-01-05T05:11:43.018Z,987.21
2018-01-05T05:12:08.513Z,987.29
2018-01-05T05:12:33.982Z,987.2
2018-01-05T05:12:59.565Z,987.24
2018-01-05T05:13:25.061Z,987.35
2018-01-05T05:13:50.602Z,987.28
2018-01-05T05:14:16.108Z,987.28
2018-01-05T05:14:41.586Z,987.29
2018-01-05T05:15:07.087Z,987.24
2018-01-05T05:15:32.550Z,987.25
2018-01-05T05:16:31.071Z,987.27
2018-01-05T05:16:56.559Z,987.22
2018-01-05T05:17:22.050Z,987.21
2018-01-05T05:17:47.520Z,987.18
2018-01-05T05:18:13.008Z,987.23
2018-01-05T05:18:38.513Z,987.16
2018-01-05T05:19:04.010Z,987.18
2018-01-05T05:19:29.506Z,987.2
2018-01-05T05:19:55.048Z,987.16
2018-01-05T05:20:20.618Z,987.15
2018-01-05T05:20:46.097Z,987.18
2018-01-05T05:21:11.554Z,987.22
2018-01-05T05:21:37.006Z,987.24
2018-01-05T05:22:02.536Z,987.24
2018-01-05T05:22:28.021Z,987.19
2018-01-05T05:23:31.650Z,987.2
2018-01-05T05:23:57.176Z,987.21
2018-01-05T05:24:22.717Z,987.23
2018-01-05T05:24:48.158Z,987.21
2018-01-05T05:25:13.747Z,987.28
2018-01-05T05:25:39.238Z,987.24
2018-01-05T05:26:04.990Z,987.26
2018-01-05T05:26:30.651Z,987.22
2018-01-05T05:26:56.126Z,987.2
2018-01-05T05:27:21.639Z,987.18
2018-01-05T05:27:47.050Z,987.16
2018-01-05T05:28:12.523Z,987.18
2018-01-05T05:28:38.077Z,987.17
2018-01-05T05:29:03.711Z,987.19
2018-01-05T05:29:29.231Z,987.18
2018-01-05T05:29:55.001Z,987.21
2018-01-05T05:30:20.877Z,987.27
2018-01-05T05:30:46.420Z,987.24
2018-01-05T05:31:12.048Z,987.25
2018-01-05T05:31:37.955Z,987.26
2018-01-05T05:32:03.693Z,987.29
2018-01-05T05:32:29.151Z,987.26
2018-01-05T05:32:54.720Z,987.3
2018-01-05T05:33:20.109Z,987.24
2018-01-05T05:33:45.624Z,987.25
2018-01-05T05:34:11.051Z,987.23
2018-01-05T05:34:36.519Z,987.25
2018-01-05T05:35:02.017Z,987.18
2018-01-05T05:35:27.531Z,987.24
2018-01-05T05:35:53.040Z,987.25
2018-01-05T05:36:18.499Z,987.29
2018-01-05T05:36:43.995Z,987.28
2018-01-05T05:37:09.440Z,987.29
2018-01-05T05:37:34.939Z,987.28
2018-01-05T05:38:00.453Z,987.3
2018-01-05T05:38:25.963Z,987.33
2018-01-05T05:38:51.438Z,987.29
2018-01-05T05:39:16.927Z,987.3
2018-01-05T05:39:42.417Z,987.33
2018-01-05T05:40:07.901Z,987.29
2018-01-05T05:40:33.436Z,987.25
2018-01-05T05:40:58.944Z,987.24
2018-01-05T05:41:24.425Z,987.26
2018-01-05T05:41:49.905Z,987.28
2018-01-05T05:42:15.367Z,987.24
2018-01-05T05:42:40.873Z,987.25
2018-01-05T05:43:06.350Z,987.25
2018-01-05T05:43:31.858Z,987.23
2018-01-05T05:43:57.356Z,987.2
2018-01-05T05:44:22.854Z,987.2
2018-01-05T05:44:48.347Z,987.22
2018-01-05T05:45:13.840Z,987.18
2018-01-05T05:45:39.367Z,987.21
2018-01-05T05:46:05.110Z,987.2
2018-01-05T05:46:30.612Z,987.21
2018-01-05T05:46:56.076Z,987.19
2018-01-05T05:47:21.557Z,987.2
2018-01-05T05:47:47.101Z,987.22
2018-01-05T05:48:12.498Z,987.26
2018-01-05T05:48:38.011Z,987.25
2018-01-05T05:49:03.536Z,987.19
2018-01-05T05:49:29.158Z,987.17
2018-01-05T05:49:54.630Z,987.19
2018-01-05T05:50:20.112Z,987.17
2018-01-05T05:50:45.611Z,987.18
2018-01-05T05:51:11.083Z,987.16
2018-01-05T05:51:36.539Z,987.14
2018-01-05T05:52:02.010Z,987.17
2018-01-05T05:52:27.469Z,987.13
2018-01-05T05:52:52.982Z,987.18
2018-01-05T05:53:18.448Z,987.15
2018-01-05T05:53:43.884Z,987.12
2018-01-05T05:54:09.440Z,987.17
2018-01-05T05:54:34.917Z,987.12
2018-01-05T05:55:00.391Z,987.14
2018-01-05T05:55:25.865Z,987.12
2018-01-05T05:55:51.359Z,987.07
2018-01-05T05:56:16.826Z,987.08
2018-01-05T05:56:42.276Z,987.08
2018-01-05T05:57:07.729Z,987.07
2018-01-05T05:57:33.222Z,987.12
2018-01-05T05:57:58.676Z,987.11
2018-01-05T05:58:24.139Z,987.11
2018-01-05T05:58:49.618Z,987.1
2018-01-05T05:59:15.118Z,987.09
2018-01-05T05:59:40.559Z,987.11
2018-01-05T06:00:06.010Z,987.13
2018-01-05T06:00:31.537Z,987.1
2018-01-05T06:00:57.008Z,987.14
2018-01-05T06:01:22.457Z,987.09
2018-01-05T06:01:48.095Z,987.08
2018-01-05T06:02:13.558Z,987.08
2018-01-05T06:02:39.081Z,987.09
2018-01-05T06:03:04.614Z,987.09
2018-01-05T06:03:30.144Z,987.07
2018-01-05T06:03:55.547Z,987.04
2018-01-05T06:04:21.004Z,987.07
2018-01-05T06:04:46.450Z,987.07
2018-01-05T06:05:11.937Z,987.03
2018-01-05T06:05:37.400Z,987.02
2018-01-05T06:06:02.851Z,987.04
2018-01-05T06:06:28.339Z,987.12
2018-01-05T06:06:53.912Z,987.13
2018-01-05T06:07:19.325Z,987.14
2018-01-05T06:07:44.780Z,987.13
2018-01-05T06:08:10.252Z,987.11
2018-01-05T06:08:35.734Z,987.13
2018-01-05T06:09:01.206Z,987.12
2018-01-05T06:09:26.679Z,987.16
2018-01-05T06:09:52.124Z,987.11
2018-01-05T06:10:17.596Z,987.14
2018-01-05T06:10:43.074Z,987.13
2018-01-05T06:11:08.549Z,987.14
2018-01-05T06:11:34.019Z,987.19
2018-01-05T06:11:59.483Z,987.14
2018-01-05T06:12:24.964Z,987.16
2018-01-05T06:12:50.435Z,987.18
2018-01-05T06:13:15.887Z,987.13
2018-01-05T06:13:41.387Z,987.19
2018-01-05T06:14:06.903Z,987.17
2018-01-05T06:14:32.380Z,987.14
2018-01-05T06:14:57.848Z,987.11
2018-01-05T06:15:23.351Z,987.13
2018-01-05T06:15:48.826Z,987.18
2018-01-05T06:16:14.315Z,987.16
2018-01-05T06:16:39.837Z,987.16
2018-01-05T06:17:05.340Z,987.14
2018-01-05T06:17:30.814Z,987.18
2018-01-05T06:17:56.286Z,987.21
2018-01-05T06:18:21.732Z,987.21
2018-01-05T06:18:47.244Z,987.2
2018-01-05T06:19:12.702Z,987.18
2018-01-05T06:19:38.157Z,987.17
2018-01-05T06:20:41.769Z,987.22
2018-01-05T06:21:07.252Z,987.14
2018-01-05T06:21:32.740Z,987.11
2018-01-05T06:21:58.237Z,987.09
2018-01-05T06:22:23.726Z,987.07
2018-01-05T06:22:49.196Z,987.06
2018-01-05T06:23:14.693Z,987.09
2018-01-05T06:23:40.180Z,987.08
2018-01-05T06:24:05.653Z,987.09
2018-01-05T06:24:31.194Z,987.06
2018-01-05T06:24:56.665Z,987.02
2018-01-05T06:25:22.172Z,987.05
2018-01-05T06:25:47.633Z,987.07
2018-01-05T06:26:13.119Z,987.05
2018-01-05T06:26:38.603Z,987.04
2018-01-05T06:27:04.096Z,986.99
2018-01-05T06:27:29.614Z,987.06
2018-01-05T06:27:55.138Z,987.02
2018-01-05T06:28:20.625Z,986.99
2018-01-05T06:29:34.440Z,987.11
2018-01-05T06:29:59.910Z,987.11
2018-01-05T06:30:25.422Z,987.12
2018-01-05T06:30:50.912Z,987.11
2018-01-05T06:31:16.418Z,987.1
2018-01-05T06:31:41.878Z,987.11
2018-01-05T06:32:07.322Z,987.13
2018-01-05T06:32:32.777Z,987.11
2018-01-05T06:32:58.307Z,987.05
2018-01-05T06:33:23.856Z,987.04
2018-01-05T06:33:49.292Z,987.1
2018-01-05T06:34:14.800Z,987.06
2018-01-05T06:34:40.292Z,987.11
2018-01-05T06:35:43.911Z,987.06
2018-01-05T06:36:09.394Z,987.06
2018-01-05T06:36:34.884Z,987.08
2018-01-05T06:37:00.344Z,987.1
2018-01-05T06:37:25.834Z,986.95
2018-01-05T06:37:51.292Z,987.01
2018-01-05T06:38:16.829Z,987.05
2018-01-05T06:38:42.333Z,987.08
2018-01-05T06:39:07.825Z,987.06
2018-01-05T06:39:33.366Z,987.08
2018-01-05T06:39:58.836Z,987.11
2018-01-05T06:40:24.319Z,987.12
2018-01-05T06:40:49.782Z,987.17
2018-01-05T06:41:15.299Z,987.18
2018-01-05T06:41:40.816Z,987.21
2018-01-05T06:42:06.279Z,987.22
2018-01-05T06:42:31.778Z,987.21
2018-01-05T06:42:57.262Z,987.23
2018-01-05T06:43:22.721Z,987.21
2018-01-05T06:43:48.226Z,987.2
2018-01-05T06:44:13.712Z,987.18
2018-01-05T06:44:39.223Z,987.19
2018-01-05T06:45:04.716Z,987.14
2018-01-05T06:45:30.227Z,987.17
2018-01-05T06:45:55.747Z,987.07
2018-01-05T06:46:21.241Z,987.09
2018-01-05T06:46:46.701Z,987.1
2018-01-05T06:47:12.212Z,987.14
2018-01-05T06:47:37.717Z,987.25
2018-01-05T06:48:03.195Z,987.15
2018-01-05T06:48:28.680Z,987.22
2018-01-05T06:48:54.172Z,987.21
2018-01-05T06:49:19.720Z,987.29
2018-01-05T06:49:45.184Z,987.18
2018-01-05T06:50:10.782Z,987.17
2018-01-05T06:50:36.194Z,987.29
2018-01-05T06:51:01.681Z,987.24
2018-01-05T06:51:27.212Z,987.23
2018-01-05T06:51:52.671Z,987.27
2018-01-05T06:52:18.184Z,987.3
2018-01-05T06:52:43.675Z,987.29
2018-01-05T06:53:09.169Z,987.31
2018-01-05T06:53:34.664Z,987.3
2018-01-05T06:54:00.153Z,987.34
2018-01-05T06:54:25.659Z,987.35
2018-01-05T06:54:51.110Z,987.37
2018-01-05T06:55:16.605Z,987.42
2018-01-05T06:55:42.102Z,987.4
2018-01-05T06:56:07.599Z,987.41
2018-01-05T06:56:33.100Z,987.41
2018-01-05T06:56:58.574Z,987.43
2018-01-05T06:57:24.041Z,987.45
2018-01-05T06:57:49.534Z,987.46
2018-01-05T06:58:15.030Z,987.46
2018-01-05T06:58:40.551Z,987.46
2018-01-05T06:59:59.459Z,987.53
2018-01-05T07:00:24.933Z,987.55
2018-01-05T07:00:50.429Z,987.49
2018-01-05T07:01:15.927Z,987.56
2018-01-05T07:01:41.429Z,987.47
2018-01-05T07:02:06.912Z,987.5
2018-01-05T07:02:32.411Z,987.52
2018-01-05T07:02:57.915Z,987.49
2018-01-05T07:03:23.408Z,987.53
2018-01-05T07:03:48.927Z,987.56
2018-01-05T07:04:14.424Z,987.55
2018-01-05T07:04:39.934Z,987.6
2018-01-05T07:05:05.402Z,987.58
2018-01-05T07:05:30.892Z,987.67
2018-01-05T07:06:34.494Z,987.65
2018-01-05T07:07:00.003Z,987.7
2018-01-05T07:07:25.540Z,987.7
2018-01-05T07:07:51.054Z,987.68
2018-01-05T07:08:16.546Z,987.72
2018-01-05T07:08:42.025Z,987.75
2018-01-05T07:09:07.522Z,987.78
2018-01-05T07:09:32.984Z,987.77
2018-01-05T07:09:58.509Z,987.82
2018-01-05T07:10:23.969Z,987.81
2018-01-05T07:10:49.459Z,987.87
2018-01-05T07:11:14.902Z,987.85
2018-01-05T07:11:40.378Z,987.88
2018-01-05T07:12:05.875Z,987.82
2018-01-05T07:12:31.361Z,987.87
2018-01-05T07:12:56.870Z,987.89
2018-01-05T07:13:22.393Z,987.91
2018-01-05T07:14:20.961Z,988.08
2018-01-05T07:14:46.492Z,988.1
2018-01-05T07:15:12.004Z,988.07
2018-01-05T07:15:37.486Z,988.17
2018-01-05T07:16:02.946Z,988.07
2018-01-05T07:16:28.433Z,988.17
2018-01-05T07:16:53.924Z,988.13
2018-01-05T07:17:19.389Z,988.19
2018-01-05T07:17:44.881Z,988.18
2018-01-05T07:18:10.340Z,988.14
2018-01-05T07:18:35.821Z,988.17
2018-01-05T07:19:01.317Z,988.18
2018-01-05T07:19:26.771Z,988.17
2018-01-05T07:19:52.236Z,988.21
2018-01-05T07:20:17.782Z,988.2
2018-01-05T07:20:43.304Z,988.25
2018-01-05T07:21:08.826Z,988.24
2018-01-05T07:21:34.359Z,988.26
2018-01-05T07:21:59.829Z,988.31
2018-01-05T07:22:25.325Z,988.32
2018-01-05T07:22:50.848Z,988.29
2018-01-05T07:23:16.326Z,988.3
2018-01-05T07:23:41.814Z,988.37
2018-01-05T07:24:07.319Z,988.34
2018-01-05T07:24:32.804Z,988.3
2018-01-05T07:24:58.286Z,988.31
2018-01-05T07:25:23.757Z,988.31
2018-01-05T07:25:49.237Z,988.37
2018-01-05T07:26:14.739Z,988.35
2018-01-05T07:26:40.234Z,988.38
2018-01-05T07:27:05.742Z,988.37
2018-01-05T07:27:31.272Z,988.41
2018-01-05T07:27:56.764Z,988.35
2018-01-05T07:28:22.259Z,988.37
2018-01-05T07:28:47.745Z,988.41
2018-01-05T07:29:13.265Z,988.41
2018-01-05T07:29:38.827Z,988.44
2018-01-05T07:30:04.283Z,988.47
2018-01-05T07:30:29.789Z,988.46
2018-01-05T07:30:55.251Z,988.52
2018-01-05T07:31:20.763Z,988.48
2018-01-05T07:31:46.236Z,988.52
2018-01-05T07:32:11.706Z,988.52
2018-01-05T07:32:37.177Z,988.54
2018-01-05T07:33:02.635Z,988.56
2018-01-05T07:33:28.152Z,988.5
2018-01-05T07:33:53.627Z,988.53
2018-01-05T07:34:19.107Z,988.57
2018-01-05T07:34:44.583Z,988.59
2018-01-05T07:35:10.069Z,988.62
2018-01-05T07:35:35.577Z,988.56
2018-01-05T07:36:01.067Z,988.58
2018-01-05T07:36:26.563Z,988.58
2018-01-05T07:36:52.088Z,988.58
2018-01-05T07:37:17.572Z,988.56
2018-01-05T07:37:43.008Z,988.58
2018-01-05T07:38:08.508Z,988.6
2018-01-05T07:38:34.009Z,988.59
2018-01-05T07:38:59.466Z,988.56
2018-01-05T07:39:24.984Z,988.53
2018-01-05T07:40:43.930Z,988.57
2018-01-05T07:41:09.416Z,988.54
2018-01-05T07:41:34.936Z,988.54
2018-01-05T07:42:00.422Z,988.49
2018-01-05T07:42:25.981Z,988.57
2018-01-05T07:42:51.465Z,988.52
2018-01-05T07:43:16.997Z,988.53
2018-01-05T07:43:42.492Z,988.52
2018-01-05T07:44:07.990Z,988.55
2018-01-05T07:44:33.479Z,988.51
2018-01-05T07:44:58.983Z,988.58
2018-01-05T07:45:24.453Z,988.61
2018-01-05T07:45:49.955Z,988.6
2018-01-05T07:46:15.450Z,988.61
2018-01-05T07:46:40.975Z,988.71
2018-01-05T07:47:06.500Z,988.72
2018-01-05T07:47:32.011Z,988.76
2018-01-05T07:47:57.499Z,988.76
2018-01-05T07:48:22.978Z,988.79
2018-01-05T07:48:48.472Z,988.8
2018-01-05T07:49:13.973Z,988.8
2018-01-05T07:49:39.464Z,988.8
2018-01-05T07:50:04.990Z,988.84
2018-01-05T07:50:30.488Z,988.86
2018-01-05T07:50:56.031Z,988.89
2018-01-05T07:51:21.566Z,988.9
2018-01-05T07:51:47.037Z,988.92
2018-01-05T07:52:12.547Z,988.91
2018-01-05T07:52:38.048Z,988.94
2018-01-05T07:53:36.589Z,989
2018-01-05T07:54:02.078Z,988.99
2018-01-05T07:54:27.556Z,989.01
2018-01-05T07:54:52.997Z,989
2018-01-05T07:55:18.485Z,989.02
2018-01-05T07:55:43.995Z,989.02
2018-01-05T07:56:09.498Z,989
2018-01-05T07:56:35.000Z,988.99
2018-01-05T07:57:00.453Z,988.93
2018-01-05T07:57:26.004Z,988.96
2018-01-05T07:57:51.501Z,988.93
2018-01-05T07:58:16.997Z,988.93
2018-01-05T07:58:42.546Z,989.03
2018-01-05T07:59:08.018Z,989.04
2018-01-05T07:59:33.487Z,989
2018-01-05T08:00:52.400Z,989.05
2018-01-05T08:01:17.866Z,989.12
2018-01-05T08:01:43.385Z,989.09
2018-01-05T08:02:08.830Z,989.12
2018-01-05T08:02:34.380Z,989.09
2018-01-05T08:02:59.881Z,989.08
2018-01-05T08:03:25.359Z,989.12
2018-01-05T08:03:50.850Z,989.16
2018-01-05T08:04:16.296Z,989.19
2018-01-05T08:04:41.802Z,989.2
2018-01-05T08:05:07.285Z,989.24
2018-01-05T08:05:32.771Z,989.24
2018-01-05T08:05:58.269Z,989.26
2018-01-05T08:06:23.770Z,989.32
2018-01-05T08:06:49.242Z,989.29
2018-01-05T08:07:14.733Z,989.31
2018-01-05T08:07:40.223Z,989.37
2018-01-05T08:08:05.700Z,989.36
2018-01-05T08:08:31.187Z,989.38
2018-01-05T08:08:56.705Z,989.37
2018-01-05T08:09:22.224Z,989.42
2018-01-05T08:09:47.690Z,989.42
2018-01-05T08:10:13.189Z,989.42
2018-01-05T08:10:38.720Z,989.46
2018-01-05T08:11:04.202Z,989.48
2018-01-05T08:11:29.683Z,989.39
2018-01-05T08:11:55.181Z,989.5
2018-01-05T08:12:20.671Z,989.4
2018-01-05T08:12:46.150Z,989.42
2018-01-05T08:13:11.652Z,989.45
2018-01-05T08:13:37.164Z,989.47
2018-01-05T08:14:02.649Z,989.54
2018-01-05T08:15:11.935Z,989.56
2018-01-05T08:15:37.413Z,989.62
2018-01-05T08:16:02.870Z,989.6
2018-01-05T08:16:28.353Z,989.57
2018-01-05T08:16:53.797Z,989.59
2018-01-05T08:17:19.298Z,989.55
2018-01-05T08:17:44.756Z,989.54
2018-01-05T08:18:10.213Z,989.62
2018-01-05T08:18:35.651Z,989.59
2018-01-05T08:19:01.106Z,989.64
2018-01-05T08:19:26.572Z,989.64
2018-01-05T08:19:52.043Z,989.68
2018-01-05T08:20:17.505Z,989.76
2018-01-05T08:20:42.964Z,989.74
2018-01-05T08:21:08.431Z,989.76
2018-01-05T08:21:33.946Z,989.75
2018-01-05T08:21:59.419Z,989.78
2018-01-05T08:22:24.884Z,989.79
2018-01-05T08:22:50.322Z,989.76
2018-01-05T08:23:53.904Z,989.74
2018-01-05T08:24:19.376Z,989.77
2018-01-05T08:24:44.857Z,989.69
2018-01-05T08:25:10.352Z,989.7
2018-01-05T08:25:35.851Z,989.7
2018-01-05T08:26:01.345Z,989.73
2018-01-05T08:26:26.820Z,989.66
2018-01-05T08:26:52.305Z,989.65
2018-01-05T08:27:17.802Z,989.67
2018-01-05T08:27:43.290Z,989.7
2018-01-05T08:28:08.833Z,989.7
2018-01-05T08:28:34.279Z,989.67
2018-01-05T08:28:59.785Z,989.75
2018-01-05T08:29:25.236Z,989.75
2018-01-05T08:29:50.722Z,989.76
2018-01-05T08:30:16.186Z,989.82
2018-01-05T08:30:41.666Z,989.81
2018-01-05T08:31:07.170Z,989.83
2018-01-05T08:31:32.712Z,989.81
2018-01-05T08:31:58.223Z,989.79
2018-01-05T08:32:23.701Z,989.81
2018-01-05T08:32:49.186Z,989.83
2018-01-05T08:33:14.693Z,989.82
2018-01-05T08:33:40.151Z,989.87
2018-01-05T08:34:05.623Z,989.82
2018-01-05T08:34:31.084Z,989.82
2018-01-05T08:34:56.580Z,989.83
2018-01-05T08:35:22.067Z,989.87
2018-01-05T08:35:47.555Z,989.87
2018-01-05T08:36:13.043Z,989.86
2018-01-05T08:36:38.535Z,989.9
2018-01-05T08:37:04.035Z,989.86
2018-01-05T08:37:29.555Z,989.84
2018-01-05T08:37:55.049Z,989.79
2018-01-05T08:38:20.591Z,989.84
2018-01-05T08:38:46.032Z,989.78
2018-01-05T08:39:49.645Z,989.81
2018-01-05T08:40:15.123Z,989.77
2018-01-05T08:40:40.614Z,989.74
2018-01-05T08:41:06.114Z,989.79
2018-01-05T08:41:31.606Z,989.79
2018-01-05T08:41:57.146Z,989.8
2018-01-05T08:42:22.684Z,989.85
2018-01-05T08:42:48.157Z,989.84
2018-01-05T08:43:13.623Z,989.89
2018-01-05T08:43:39.132Z,989.88
2018-01-05T08:44:04.735Z,989.9
2018-01-05T08:44:30.152Z,989.93
2018-01-05T08:44:55.800Z,989.94
2018-01-05T08:45:21.289Z,989.93
2018-01-05T08:45:46.764Z,989.9
2018-01-05T08:46:12.229Z,989.92
2018-01-05T08:46:37.773Z,989.88
2018-01-05T08:47:03.281Z,989.87
2018-01-05T08:47:28.737Z,989.93
2018-01-05T08:47:54.231Z,989.93
2018-01-05T08:48:19.704Z,989.92
2018-01-05T08:48:45.167Z,989.94
2018-01-05T08:49:10.673Z,989.97
2018-01-05T08:49:36.186Z,990
2018-01-05T08:50:01.684Z,989.97
2018-01-05T08:50:27.208Z,989.97
2018-01-05T08:50:52.687Z,989.98
2018-01-05T08:51:18.206Z,989.97
2018-01-05T08:51:43.673Z,990.03
2018-01-05T08:52:09.147Z,990.02
2018-01-05T08:52:34.641Z,990.03
2018-01-05T08:53:00.103Z,990.03
2018-01-05T08:53:25.589Z,990.01
2018-01-05T08:54:39.440Z,989.99
2018-01-05T08:55:04.942Z,990.05
2018-01-05T08:55:30.423Z,990.08
2018-01-05T08:55:55.907Z,990.06
2018-01-05T08:56:21.380Z,990.09
2018-01-05T08:56:46.850Z,990.06
2018-01-05T08:57:12.334Z,990.04
2018-01-05T08:57:37.876Z,990.06
2018-01-05T08:58:03.374Z,990.07
2018-01-05T08:58:28.891Z,990.13
2018-01-05T08:58:54.397Z,990.08
2018-01-05T08:59:19.896Z,990.06
2018-01-05T08:59:45.407Z,990.02
2018-01-05T09:00:10.931Z,990.02
2018-01-05T09:00:36.382Z,990.04
2018-01-05T09:01:50.180Z,990.07
2018-01-05T09:02:15.659Z,990.07
2018-01-05T09:02:41.163Z,990.07
2018-01-05T09:03:06.618Z,990.08
2018-01-05T09:03:32.144Z,990.04
2018-01-05T09:04:35.781Z,990.16
2018-01-05T09:05:01.279Z,990.1
2018-01-05T09:05:26.757Z,990.1
2018-01-05T09:06:30.368Z,990.16
2018-01-05T09:06:55.897Z,990.16
2018-01-05T09:07:21.395Z,990.1
2018-01-05T09:07:46.925Z,990.11
2018-01-05T09:08:55.141Z,990.1
2018-01-05T09:09:20.619Z,990.11
2018-01-05T09:10:39.542Z,990.13
2018-01-05T09:11:05.023Z,990.11
2018-01-05T09:11:30.575Z,990.13
2018-01-05T09:11:56.098Z,990.14
2018-01-05T09:12:21.652Z,990.12
2018-01-05T09:12:47.090Z,990.11
2018-01-05T09:13:12.608Z,990.18
2018-01-05T09:13:38.137Z,990.16
2018-01-05T09:14:03.589Z,990.18
2018-01-05T09:14:29.064Z,990.17
2018-01-05T09:14:54.568Z,990.26
2018-01-05T09:15:20.081Z,990.21
2018-01-05T09:15:45.595Z,990.27
2018-01-05T09:16:11.086Z,990.24
2018-01-05T09:16:36.584Z,990.2
2018-01-05T09:17:02.078Z,990.2
2018-01-05T09:17:27.604Z,990.16
2018-01-05T09:17:53.049Z,990.17
2018-01-05T09:18:18.533Z,990.16
2018-01-05T09:18:44.003Z,990.17
2018-01-05T09:19:09.506Z,990.16
2018-01-05T09:19:35.019Z,990.17
2018-01-05T09:20:00.523Z,990.16
2018-01-05T09:20:26.019Z,990.15
2018-01-05T09:20:51.505Z,990.15
2018-01-05T09:21:16.998Z,990.14
2018-01-05T09:21:42.526Z,990.11
2018-01-05T09:22:08.034Z,990.13
2018-01-05T09:23:21.858Z,990.17
2018-01-05T09:23:47.335Z,990.16
2018-01-05T09:24:12.818Z,990.14
2018-01-05T09:24:38.246Z,990.13
2018-01-05T09:25:03.687Z,990.18
2018-01-05T09:25:29.166Z,990.17
2018-01-05T09:25:54.657Z,990.2
2018-01-05T09:26:58.254Z,990.17
2018-01-05T09:27:23.735Z,990.15
2018-01-05T09:28:42.196Z,990.2
2018-01-05T09:29:07.666Z,990.22
2018-01-05T09:29:33.156Z,990.19
2018-01-05T09:29:58.664Z,990.28
2018-01-05T09:30:24.152Z,990.27
2018-01-05T09:30:49.636Z,990.29
2018-01-05T09:31:15.147Z,990.35
2018-01-05T09:31:40.624Z,990.33
2018-01-05T09:32:06.113Z,990.41
2018-01-05T09:32:31.565Z,990.47
2018-01-05T09:32:57.065Z,990.43
2018-01-05T09:33:22.627Z,990.46
2018-01-05T09:33:48.122Z,990.5
2018-01-05T09:34:13.599Z,990.47
2018-01-05T09:34:39.145Z,990.42
2018-01-05T09:35:04.638Z,990.48
2018-01-05T09:35:30.148Z,990.43
2018-01-05T09:35:55.651Z,990.44
2018-01-05T09:36:21.179Z,990.37
2018-01-05T09:36:46.646Z,990.39
2018-01-05T09:38:00.483Z,990.32
2018-01-05T09:38:25.965Z,990.36
2018-01-05T09:38:51.447Z,990.31
2018-01-05T09:39:16.977Z,990.36
2018-01-05T09:39:42.448Z,990.41
2018-01-05T09:40:07.915Z,990.48
2018-01-05T09:40:33.396Z,990.44
2018-01-05T09:40:58.935Z,990.5
2018-01-05T09:41:24.407Z,990.51
2018-01-05T09:41:49.864Z,990.53
2018-01-05T09:42:15.391Z,990.51
2018-01-05T09:42:40.850Z,990.52
2018-01-05T09:43:06.306Z,990.55
2018-01-05T09:43:31.827Z,990.47
2018-01-05T09:43:57.317Z,990.47
2018-01-05T09:44:22.833Z,990.42
2018-01-05T09:44:48.326Z,990.45
2018-01-05T09:45:13.814Z,990.46
2018-01-05T09:45:39.370Z,990.42
2018-01-05T09:46:48.080Z,990.47
2018-01-05T09:47:13.573Z,990.42
2018-01-05T09:47:39.063Z,990.44
2018-01-05T09:48:04.578Z,990.43
2018-01-05T09:48:30.071Z,990.41
2018-01-05T09:48:55.545Z,990.42
2018-01-05T09:49:21.070Z,990.43
2018-01-05T09:49:46.598Z,990.4
2018-01-05T09:50:12.066Z,990.45
2018-01-05T09:50:37.517Z,990.44
2018-01-05T09:51:03.010Z,990.42
2018-01-05T09:51:28.511Z,990.44
2018-01-05T09:51:54.005Z,990.44
2018-01-05T09:52:19.535Z,990.49
2018-01-05T09:52:45.004Z,990.46
2018-01-05T09:53:10.511Z,990.47
2018-01-05T09:53:35.974Z,990.44
2018-01-05T09:54:01.479Z,990.5
2018-01-05T09:54:26.965Z,990.45
2018-01-05T09:54:52.406Z,990.42
2018-01-05T09:55:17.882Z,990.42
2018-01-05T09:55:43.329Z,990.36
2018-01-05T09:56:08.827Z,990.37
2018-01-05T09:56:34.318Z,990.38
2018-01-05T09:56:59.817Z,990.41
2018-01-05T09:57:25.285Z,990.35
2018-01-05T09:57:50.814Z,990.41
2018-01-05T09:58:16.290Z,990.39
2018-01-05T09:58:41.761Z,990.49
2018-01-05T09:59:07.252Z,990.47
2018-01-05T09:59:32.713Z,990.44
2018-01-05T09:59:58.231Z,990.45
2018-01-05T10:00:23.706Z,990.5
2018-01-05T10:00:49.203Z,990.47
2018-01-05T10:01:14.691Z,990.52
2018-01-05T10:01:40.199Z,990.5
2018-01-05T10:02:05.641Z,990.47
2018-01-05T10:02:31.147Z,990.51
2018-01-05T10:02:56.637Z,990.48
2018-01-05T10:03:22.082Z,990.47
2018-01-05T10:03:47.579Z,990.48
2018-01-05T10:04:56.296Z,990.58
2018-01-05T10:05:21.793Z,990.55
2018-01-05T10:05:47.290Z,990.53
2018-01-05T10:06:12.748Z,990.57
2018-01-05T10:06:38.216Z,990.59
2018-01-05T10:07:03.789Z,990.54
2018-01-05T10:07:29.249Z,990.56
2018-01-05T10:07:54.738Z,990.58
2018-01-05T10:08:20.241Z,990.54
2018-01-05T10:08:45.736Z,990.49
2018-01-05T10:09:11.198Z,990.48
2018-01-05T10:09:36.683Z,990.5
2018-01-05T10:10:02.147Z,990.45
2018-01-05T10:10:27.652Z,990.49
2018-01-05T10:10:53.153Z,990.48
2018-01-05T10:11:18.653Z,990.57
2018-01-05T10:11:44.177Z,990.46
2018-01-05T10:12:09.693Z,990.48
2018-01-05T10:12:35.197Z,990.43
2018-01-05T10:13:43.961Z,990.43
2018-01-05T10:14:09.450Z,990.45
2018-01-05T10:14:34.940Z,990.41
2018-01-05T10:15:00.412Z,990.4
2018-01-05T10:15:25.937Z,990.41
2018-01-05T10:15:51.410Z,990.43
2018-01-05T10:16:16.907Z,990.4
2018-01-05T10:16:42.394Z,990.38
2018-01-05T10:17:07.871Z,990.36
2018-01-05T10:17:33.412Z,990.38
2018-01-05T10:18:47.253Z,990.35
2018-01-05T10:19:12.750Z,990.42
2018-01-05T10:19:38.234Z,990.4
2018-01-05T10:20:03.688Z,990.4
2018-01-05T10:20:29.200Z,990.43
2018-01-05T10:20:54.693Z,990.48
2018-01-05T10:21:20.143Z,990.47
2018-01-05T10:21:45.668Z,990.45
2018-01-05T10:22:49.260Z,990.47
2018-01-05T10:23:14.817Z,990.45
2018-01-05T10:23:40.318Z,990.46
2018-01-05T10:24:05.804Z,990.52
2018-01-05T10:24:31.287Z,990.51
2018-01-05T10:24:56.791Z,990.48
2018-01-05T10:25:22.315Z,990.5
2018-01-05T10:25:47.901Z,990.53
2018-01-05T10:26:13.359Z,990.53
2018-01-05T10:26:38.846Z,990.54
2018-01-05T10:27:04.338Z,990.58
2018-01-05T10:27:29.856Z,990.59
2018-01-05T10:27:55.332Z,990.59
2018-01-05T10:28:20.797Z,990.64
2018-01-05T10:28:46.328Z,990.62
2018-01-05T10:29:11.816Z,990.6
2018-01-05T10:30:15.452Z,990.61
2018-01-05T10:31:34.389Z,990.63
2018-01-05T10:31:59.919Z,990.59
2018-01-05T10:32:25.429Z,990.6
2018-01-05T10:32:51.034Z,990.62
2018-01-05T10:33:16.493Z,990.56
2018-01-05T10:33:42.020Z,990.62
2018-01-05T10:34:07.508Z,990.53
2018-01-05T10:34:32.998Z,990.59
2018-01-05T10:34:58.485Z,990.52
2018-01-05T10:35:23.977Z,990.57
2018-01-05T10:35:49.509Z,990.56
2018-01-05T10:36:15.016Z,990.49
2018-01-05T10:36:40.513Z,990.57
2018-01-05T10:37:06.031Z,990.6
2018-01-05T10:37:31.593Z,990.54
2018-01-05T10:37:57.045Z,990.59
2018-01-05T10:38:22.559Z,990.64
2018-01-05T10:38:48.031Z,990.64
2018-01-05T10:39:13.528Z,990.56
2018-01-05T10:39:39.044Z,990.6
2018-01-05T10:40:04.650Z,990.58
2018-01-05T10:40:30.125Z,990.61
2018-01-05T10:40:55.588Z,990.55
2018-01-05T10:41:21.072Z,990.59
2018-01-05T10:41:46.570Z,990.59
2018-01-05T10:42:12.064Z,990.59